createdAt,value
2023-03-23T03:59:21.640Z,0.00
2023-03-23T04:00:04.335Z,0.00
2023-03-23T04:01:04.343Z,0.00
2023-03-23T04:02:04.315Z,0.00
2023-03-23T04:03:04.297Z,0.00
2023-03-23T04:04:04.302Z,0.00
2023-03-23T04:05:04.316Z,0.00
2023-03-23T04:06:04.274Z,0.00
2023-03-23T04:07:04.269Z,0.00
2023-03-23T04:08:09.322Z,0.00
2023-03-23T04:09:07.654Z,0.00
2023-03-23T04:10:04.243Z,0.00
2023-03-23T04:11:04.259Z,0.00
2023-03-23T04:12:04.244Z,0.00
2023-03-23T04:13:04.227Z,0.00
2023-03-23T04:14:04.235Z,0.00
2023-03-23T04:15:05.976Z,0.00
2023-03-23T04:16:07.368Z,0.00
2023-03-23T04:17:04.229Z,0.00
2023-03-23T04:18:04.208Z,0.00
2023-03-23T04:19:04.256Z,0.00
2023-03-23T04:20:04.202Z,0.00
2023-03-23T04:21:04.405Z,0.00
2023-03-23T04:22:04.186Z,0.00
2023-03-23T04:23:04.189Z,0.00
2023-03-23T04:24:04.183Z,0.00
2023-03-23T04:25:04.183Z,0.00
2023-03-23T04:26:04.183Z,0.00
2023-03-23T04:27:04.180Z,0.00
2023-03-23T04:28:04.161Z,0.00
2023-03-23T04:29:04.155Z,0.00
2023-03-23T04:30:04.153Z,0.00
2023-03-23T04:31:06.203Z,0.00
2023-03-23T04:32:04.147Z,0.00
2023-03-23T04:33:04.151Z,0.00
2023-03-23T04:34:04.141Z,0.00
2023-03-23T04:35:12.738Z,0.00
2023-03-23T04:36:04.196Z,0.00
2023-03-23T04:37:04.123Z,0.00
2023-03-23T04:38:04.129Z,0.00
2023-03-23T04:39:04.113Z,0.00
2023-03-23T04:40:04.135Z,0.00
2023-03-23T04:41:04.128Z,0.00
2023-03-23T04:42:04.119Z,0.00
2023-03-23T04:43:04.117Z,0.00
2023-03-23T04:44:04.128Z,0.00
2023-03-23T04:45:04.117Z,0.00
2023-03-23T04:46:04.110Z,0.00
2023-03-23T04:47:04.097Z,0.00
2023-03-23T04:48:04.075Z,0.00
2023-03-23T04:49:04.077Z,0.00
2023-03-23T04:50:04.106Z,0.00
2023-03-23T04:51:04.087Z,0.00
2023-03-23T04:52:04.075Z,0.00
2023-03-23T04:53:04.064Z,0.00
2023-03-23T04:54:04.061Z,0.00
2023-03-23T04:55:04.078Z,0.00
2023-03-23T04:56:04.048Z,0.00
2023-03-23T04:57:04.038Z,0.00
2023-03-23T04:58:04.040Z,0.00
2023-03-23T04:59:04.053Z,0.00
2023-03-23T05:00:04.027Z,0.00
2023-03-23T05:01:04.038Z,0.00
2023-03-23T05:02:14.324Z,0.00
2023-03-23T05:03:04.054Z,0.00
2023-03-23T05:04:04.024Z,0.00
2023-03-23T05:05:04.033Z,0.00
2023-03-23T05:06:04.003Z,0.00
2023-03-23T05:07:03.995Z,0.00
2023-03-23T05:08:04.049Z,0.00
2023-03-23T05:09:04.011Z,0.00
2023-03-23T05:10:04.001Z,0.00
2023-03-23T05:11:03.974Z,0.00
2023-03-23T05:12:04.003Z,0.00
2023-03-23T05:13:03.997Z,0.00
2023-03-23T05:14:03.973Z,0.00
2023-03-23T05:15:03.958Z,0.00
2023-03-23T05:16:03.969Z,0.00
2023-03-23T05:17:03.985Z,0.00
2023-03-23T05:18:03.975Z,0.00
2023-03-23T05:19:03.986Z,0.00
2023-03-23T05:20:03.984Z,0.00
2023-03-23T05:21:03.950Z,0.00
2023-03-23T05:22:03.961Z,0.00
2023-03-23T05:23:03.940Z,0.00
2023-03-23T05:24:03.955Z,0.00
2023-03-23T05:25:03.926Z,0.00
2023-03-23T05:26:03.915Z,0.00
2023-03-23T05:27:03.918Z,0.00
2023-03-23T05:28:03.920Z,0.00
2023-03-23T05:29:04.054Z,0.00
2023-03-23T05:30:03.905Z,0.00
2023-03-23T05:31:03.901Z,0.00
2023-03-23T05:32:03.901Z,0.00
2023-03-23T05:33:03.911Z,0.00
2023-03-23T05:34:03.906Z,0.00
2023-03-23T05:35:03.894Z,0.00
2023-03-23T05:36:03.901Z,0.00
2023-03-23T05:37:03.879Z,0.00
2023-03-23T05:38:03.882Z,0.00
2023-03-23T05:39:03.868Z,0.00
2023-03-23T05:40:03.861Z,0.00
2023-03-23T05:41:03.855Z,0.00
2023-03-23T05:42:03.866Z,0.00
2023-03-23T05:43:03.881Z,0.00
2023-03-23T05:44:03.865Z,0.00
2023-03-23T05:45:03.835Z,0.00
2023-03-23T05:46:03.845Z,0.00
2023-03-23T05:47:03.842Z,0.00
2023-03-23T05:48:03.862Z,0.00
2023-03-23T05:49:03.826Z,5.63
2023-03-23T05:50:03.825Z,5.63
2023-03-23T05:51:03.842Z,5.63
2023-03-23T05:52:03.826Z,5.63
2023-03-23T05:53:03.812Z,5.63
2023-03-23T05:54:03.831Z,5.63
2023-03-23T05:55:03.795Z,5.63
2023-03-23T05:56:03.786Z,5.63
2023-03-23T05:57:03.802Z,5.63
2023-03-23T05:58:03.821Z,5.63
2023-03-23T05:59:03.807Z,5.63
2023-03-23T06:00:03.786Z,5.63
2023-03-23T06:01:03.782Z,5.63
2023-03-23T06:02:03.788Z,5.63
2023-03-23T06:03:03.776Z,5.63
2023-03-23T06:04:03.771Z,5.63
2023-03-23T06:05:03.812Z,5.63
2023-03-23T06:06:03.757Z,5.63
2023-03-23T06:07:03.788Z,5.63
2023-03-23T06:08:03.750Z,11.25
2023-03-23T06:09:04.224Z,11.25
2023-03-23T06:10:03.738Z,11.25
2023-03-23T06:11:03.745Z,11.25
2023-03-23T06:12:03.755Z,11.25
2023-03-23T06:13:03.722Z,11.25
2023-03-23T06:14:03.725Z,11.25
2023-03-23T06:15:03.746Z,11.25
2023-03-23T06:16:03.722Z,16.88
2023-03-23T06:17:03.709Z,16.88
2023-03-23T06:18:03.689Z,16.88
2023-03-23T06:19:03.749Z,22.50
2023-03-23T06:20:03.704Z,22.50
2023-03-23T06:21:03.748Z,22.50
2023-03-23T06:22:03.691Z,22.50
2023-03-23T06:23:03.700Z,22.50
2023-03-23T06:24:03.704Z,22.50
2023-03-23T06:25:03.687Z,22.50
2023-03-23T06:26:04.370Z,16.88
2023-03-23T06:27:03.679Z,16.88
2023-03-23T06:28:03.677Z,16.88
2023-03-23T06:29:03.663Z,16.88
2023-03-23T06:30:03.683Z,16.88
2023-03-23T06:31:03.676Z,22.50
2023-03-23T06:32:03.691Z,22.50
2023-03-23T06:33:03.691Z,22.50
2023-03-23T06:34:03.643Z,22.50
2023-03-23T06:35:03.759Z,22.50
2023-03-23T06:36:03.666Z,22.50
2023-03-23T06:39:36.692Z,22.50
2023-03-23T06:40:36.653Z,22.50
2023-03-23T06:41:36.672Z,22.50
2023-03-23T06:42:36.671Z,22.50
2023-03-23T06:43:37.751Z,22.50
2023-03-23T06:44:36.690Z,22.50
2023-03-23T06:45:36.738Z,22.50
2023-03-23T06:46:36.657Z,22.50
2023-03-23T06:47:36.627Z,22.50
2023-03-23T06:48:36.622Z,22.50
2023-03-23T06:49:36.611Z,22.50
2023-03-23T06:50:36.990Z,28.13
2023-03-23T06:51:36.725Z,28.13
2023-03-23T06:52:36.667Z,28.13
2023-03-23T06:53:36.689Z,28.13
2023-03-23T06:56:36.686Z,33.75
2023-03-23T06:57:36.624Z,39.38
2023-03-23T06:58:36.625Z,39.38
2023-03-23T06:59:36.591Z,45.00
2023-03-23T07:00:36.644Z,50.63
2023-03-23T07:02:36.649Z,56.25
2023-03-23T07:03:36.568Z,67.50
2023-03-23T07:04:36.564Z,61.88
2023-03-23T07:05:36.564Z,67.50
2023-03-23T07:06:36.601Z,61.88
2023-03-23T07:07:36.547Z,73.13
2023-03-23T07:08:36.536Z,118.13
2023-03-23T07:09:43.171Z,95.63
2023-03-23T07:10:36.556Z,67.50
2023-03-23T07:11:36.544Z,106.88
2023-03-23T07:12:36.757Z,106.88
2023-03-23T07:14:36.585Z,50.63
2023-03-23T07:16:36.639Z,50.63
2023-03-23T07:17:36.562Z,50.63
2023-03-23T07:18:36.568Z,50.63
2023-03-23T07:19:36.569Z,56.25
2023-03-23T07:21:36.543Z,61.88
2023-03-23T07:22:36.512Z,67.50
2023-03-23T07:23:36.742Z,67.50
2023-03-23T07:24:36.534Z,67.50
2023-03-23T07:25:36.536Z,78.75
2023-03-23T07:26:36.536Z,61.88
2023-03-23T07:27:36.541Z,67.50
2023-03-23T07:28:36.590Z,67.50
2023-03-23T07:29:36.472Z,73.13
2023-03-23T07:30:36.464Z,73.13
2023-03-23T07:31:36.542Z,73.13
2023-03-23T07:32:36.530Z,67.50
2023-03-23T07:33:36.509Z,67.50
2023-03-23T07:34:36.525Z,61.88
2023-03-23T07:35:36.482Z,61.88
2023-03-23T07:37:36.484Z,61.88
2023-03-23T07:39:38.118Z,61.88
2023-03-23T07:40:36.725Z,67.50
2023-03-23T07:41:36.500Z,73.13
2023-03-23T07:42:36.497Z,78.75
2023-03-23T07:43:36.463Z,84.38
2023-03-23T07:44:36.540Z,78.75
2023-03-23T07:45:36.479Z,78.75
2023-03-23T07:46:36.552Z,84.38
2023-03-23T07:47:36.444Z,84.38
2023-03-23T07:48:36.420Z,73.13
2023-03-23T07:49:36.454Z,67.50
2023-03-23T07:50:36.566Z,67.50
2023-03-23T07:51:36.593Z,67.50
2023-03-23T07:52:36.516Z,67.50
2023-03-23T07:53:36.533Z,67.50
2023-03-23T07:55:36.448Z,39.38
2023-03-23T07:56:36.464Z,33.75
2023-03-23T07:57:36.418Z,39.38
2023-03-23T07:58:36.419Z,50.63
2023-03-23T07:59:36.502Z,56.25
2023-03-23T08:00:36.420Z,50.63
2023-03-23T08:02:36.420Z,61.88
2023-03-23T08:03:36.424Z,73.13
2023-03-23T08:04:36.370Z,78.75
2023-03-23T08:05:36.383Z,84.38
2023-03-23T08:07:36.492Z,56.25
2023-03-23T08:08:36.388Z,45.00
2023-03-23T08:09:36.352Z,39.38
2023-03-23T08:10:36.365Z,33.75
2023-03-23T08:11:36.477Z,28.13
2023-03-23T08:12:36.390Z,22.50
2023-03-23T08:13:36.434Z,28.13
2023-03-23T08:14:36.392Z,22.50
2023-03-23T08:15:36.361Z,16.88
2023-03-23T08:16:36.346Z,11.25
2023-03-23T08:17:36.416Z,11.25
2023-03-23T08:18:36.402Z,11.25
2023-03-23T08:19:36.326Z,11.25
2023-03-23T08:20:36.389Z,11.25
2023-03-23T08:21:36.331Z,11.25
2023-03-23T08:22:41.928Z,16.88
2023-03-23T08:23:36.337Z,22.50
2023-03-23T08:24:36.373Z,33.75
2023-03-23T08:26:36.345Z,39.38
2023-03-23T08:27:36.383Z,28.13
2023-03-23T08:28:36.288Z,39.38
2023-03-23T08:30:36.274Z,22.50
2023-03-23T08:31:38.268Z,28.13
2023-03-23T08:32:36.313Z,28.13
2023-03-23T08:33:36.358Z,33.75
2023-03-23T08:34:36.325Z,22.50
2023-03-23T08:35:36.491Z,33.75
2023-03-23T08:36:36.285Z,33.75
2023-03-23T08:37:36.334Z,39.38
2023-03-23T08:38:36.274Z,39.38
2023-03-23T08:39:36.283Z,45.00
2023-03-23T08:40:36.255Z,45.00
2023-03-23T08:41:36.298Z,33.75
2023-03-23T08:43:36.236Z,33.75
2023-03-23T08:44:36.346Z,39.38
2023-03-23T08:45:36.253Z,45.00
2023-03-23T08:46:36.269Z,45.00
2023-03-23T08:47:36.200Z,39.38
2023-03-23T08:48:36.258Z,33.75
2023-03-23T08:49:36.221Z,39.38
2023-03-23T08:50:37.087Z,39.38
2023-03-23T08:51:36.238Z,50.63
2023-03-23T08:52:36.196Z,56.25
2023-03-23T08:53:36.179Z,61.88
2023-03-23T08:54:36.208Z,73.13
2023-03-23T08:55:36.262Z,73.13
2023-03-23T08:56:36.177Z,78.75
2023-03-23T08:57:36.200Z,73.13
2023-03-23T08:58:36.182Z,61.88
2023-03-23T08:59:36.187Z,50.63
2023-03-23T09:00:44.067Z,50.63
2023-03-23T09:01:36.166Z,56.25
2023-03-23T09:02:36.152Z,56.25
2023-03-23T09:03:36.147Z,61.88
2023-03-23T09:04:36.169Z,61.88
2023-03-23T09:06:36.168Z,61.88
2023-03-23T09:10:09.172Z,45.00
2023-03-23T09:11:09.292Z,39.38
2023-03-23T09:12:09.163Z,45.00
2023-03-23T09:13:09.137Z,45.00
2023-03-23T09:14:09.143Z,45.00
2023-03-23T09:15:09.176Z,50.63
2023-03-23T09:16:09.230Z,45.00
2023-03-23T09:17:09.166Z,39.38
2023-03-23T09:18:09.190Z,33.75
2023-03-23T09:19:09.276Z,39.38
2023-03-23T09:21:18.905Z,33.75
2023-03-23T09:22:09.143Z,33.75
2023-03-23T09:23:09.162Z,45.00
2023-03-23T09:24:09.187Z,45.00
2023-03-23T09:25:09.261Z,45.00
2023-03-23T09:26:09.138Z,50.63
2023-03-23T09:27:09.156Z,50.63
2023-03-23T09:28:09.201Z,45.00
2023-03-23T09:29:09.130Z,45.00
2023-03-23T09:30:09.184Z,50.63
2023-03-23T09:32:09.153Z,56.25
2023-03-23T09:33:09.117Z,50.63
2023-03-23T09:34:09.156Z,56.25
2023-03-23T09:35:09.148Z,61.88
2023-03-23T09:36:09.227Z,61.88
2023-03-23T09:37:09.166Z,67.50
2023-03-23T09:38:09.090Z,73.13
2023-03-23T09:39:09.075Z,67.50
2023-03-23T09:40:09.054Z,73.13
2023-03-23T09:41:09.073Z,84.38
2023-03-23T09:42:09.051Z,84.38
2023-03-23T09:43:09.075Z,84.38
2023-03-23T09:44:09.028Z,84.38
2023-03-23T09:45:09.031Z,90.00
2023-03-23T09:46:09.078Z,90.00
2023-03-23T09:47:09.015Z,84.38
2023-03-23T09:48:09.809Z,90.00
2023-03-23T09:49:09.028Z,84.38
2023-03-23T09:50:09.081Z,84.38
2023-03-23T09:51:09.013Z,84.38
2023-03-23T09:52:09.052Z,84.38
2023-03-23T09:53:09.034Z,90.00
2023-03-23T09:54:08.991Z,90.00
2023-03-23T09:55:09.016Z,84.38
2023-03-23T09:56:09.098Z,78.75
2023-03-23T09:57:09.048Z,73.13
2023-03-23T09:58:08.997Z,56.25
2023-03-23T09:59:09.065Z,50.63
2023-03-23T10:00:09.004Z,45.00
2023-03-23T10:01:09.048Z,33.75
2023-03-23T10:02:09.001Z,22.50
2023-03-23T10:13:20.407Z,22.50
2023-03-23T10:14:20.327Z,28.13
2023-03-23T10:15:20.351Z,33.75
2023-03-23T10:16:20.337Z,39.38
2023-03-23T10:17:20.354Z,39.38
2023-03-23T10:18:20.305Z,39.38
2023-03-23T10:19:20.327Z,39.38
2023-03-23T10:20:20.317Z,39.38
2023-03-23T10:21:20.316Z,33.75
2023-03-23T10:22:20.275Z,33.75
2023-03-23T10:23:20.313Z,33.75
2023-03-23T10:24:20.364Z,33.75
2023-03-23T10:25:20.326Z,33.75
2023-03-23T10:26:20.298Z,28.13
2023-03-23T10:27:20.318Z,28.13
2023-03-23T10:28:21.378Z,28.13
2023-03-23T10:29:20.275Z,22.50
2023-03-23T10:30:20.244Z,22.50
2023-03-23T10:31:20.263Z,22.50
2023-03-23T10:32:20.250Z,22.50
2023-03-23T10:33:20.253Z,28.13
2023-03-23T10:34:20.228Z,33.75
2023-03-23T10:35:20.262Z,33.75
2023-03-23T10:36:20.292Z,39.38
2023-03-23T10:37:20.261Z,50.63
2023-03-23T10:38:20.270Z,56.25
2023-03-23T10:39:20.255Z,50.63
2023-03-23T10:40:21.918Z,39.38
2023-03-23T10:41:20.337Z,33.75
2023-03-23T10:42:20.211Z,33.75
2023-03-23T10:43:20.270Z,39.38
2023-03-23T10:44:20.247Z,50.63
2023-03-23T10:45:20.259Z,61.88
2023-03-23T10:46:31.506Z,73.13
2023-03-23T10:47:20.247Z,78.75
2023-03-23T10:48:20.210Z,78.75
2023-03-23T10:49:20.277Z,73.13
2023-03-23T10:50:20.250Z,73.13
2023-03-23T10:51:20.201Z,78.75
2023-03-23T10:52:20.337Z,90.00
2023-03-23T10:53:20.314Z,101.25
2023-03-23T10:54:20.238Z,118.13
2023-03-23T10:55:20.218Z,123.75
2023-03-23T10:56:20.281Z,129.38
2023-03-23T10:57:20.240Z,123.75
2023-03-23T10:58:20.212Z,118.13
2023-03-23T10:59:20.216Z,106.88
2023-03-23T11:00:20.353Z,106.88
2023-03-23T11:01:20.188Z,90.00
2023-03-23T11:02:27.686Z,78.75
2023-03-23T11:03:20.172Z,73.13
2023-03-23T11:04:20.187Z,73.13
2023-03-23T11:05:20.460Z,90.00
2023-03-23T11:06:20.139Z,112.50
2023-03-23T11:07:20.130Z,129.38
2023-03-23T11:08:20.125Z,135.00
2023-03-23T11:09:20.184Z,135.00
2023-03-23T11:10:20.115Z,135.00
2023-03-23T11:11:20.138Z,140.63
2023-03-23T11:12:20.244Z,151.88
2023-03-23T11:13:20.111Z,180.00
2023-03-23T11:14:20.113Z,180.00
2023-03-23T11:15:20.197Z,135.00
2023-03-23T11:16:20.107Z,112.50
2023-03-23T11:17:20.122Z,106.88
2023-03-23T11:18:20.136Z,101.25
2023-03-23T11:19:20.097Z,101.25
2023-03-23T11:20:20.108Z,101.25
2023-03-23T11:21:20.234Z,90.00
2023-03-23T11:22:20.083Z,78.75
2023-03-23T11:23:20.126Z,67.50
2023-03-23T11:24:20.093Z,61.88
2023-03-23T11:25:20.096Z,56.25
2023-03-23T11:26:20.136Z,56.25
2023-03-23T11:27:20.104Z,50.63
2023-03-23T11:28:20.128Z,61.88
2023-03-23T11:29:21.941Z,78.75
2023-03-23T11:30:20.064Z,101.25
2023-03-23T11:31:20.193Z,101.25
2023-03-23T11:32:20.046Z,84.38
2023-03-23T11:33:20.138Z,78.75
2023-03-23T11:34:20.054Z,73.13
2023-03-23T11:35:20.166Z,73.13
2023-03-23T11:36:20.180Z,84.38
2023-03-23T11:37:20.097Z,101.25
2023-03-23T11:38:20.090Z,129.38
2023-03-23T11:39:20.109Z,151.88
2023-03-23T11:40:20.351Z,163.13
2023-03-23T11:41:20.054Z,146.25
2023-03-23T11:42:20.052Z,123.75
2023-03-23T11:43:20.133Z,101.25
2023-03-23T11:44:20.026Z,106.88
2023-03-23T11:45:21.241Z,112.50
2023-03-23T11:46:20.036Z,123.75
2023-03-23T11:47:20.022Z,129.38
2023-03-23T11:48:20.041Z,129.38
2023-03-23T11:49:25.775Z,112.50
2023-03-23T11:50:20.050Z,90.00
2023-03-23T11:51:20.097Z,78.75
2023-03-23T11:52:20.016Z,61.88
2023-03-23T11:53:20.016Z,56.25
2023-03-23T11:54:20.228Z,50.63
2023-03-23T11:55:20.050Z,50.63
2023-03-23T11:56:19.995Z,50.63
2023-03-23T11:57:19.985Z,50.63
2023-03-23T11:58:20.082Z,56.25
2023-03-23T11:59:19.991Z,67.50
2023-03-23T12:00:20.151Z,78.75
2023-03-23T12:01:22.626Z,101.25
2023-03-23T12:02:19.985Z,106.88
2023-03-23T12:03:19.976Z,84.38
2023-03-23T12:04:20.062Z,67.50
2023-03-23T12:05:20.084Z,61.88
2023-03-23T12:06:20.008Z,56.25
2023-03-23T12:07:20.069Z,56.25
2023-03-23T12:09:19.983Z,61.88
2023-03-23T12:10:25.521Z,78.75
2023-03-23T12:11:20.071Z,90.00
2023-03-23T12:12:20.128Z,95.63
2023-03-23T12:13:21.143Z,101.25
2023-03-23T12:14:21.368Z,106.88
2023-03-23T12:15:19.951Z,146.25
2023-03-23T12:16:19.947Z,225.00
2023-03-23T12:17:19.966Z,281.25
2023-03-23T12:18:19.978Z,371.25
2023-03-23T12:19:19.956Z,399.38
2023-03-23T12:20:20.094Z,528.75
2023-03-23T12:21:19.972Z,416.25
2023-03-23T12:22:19.946Z,489.38
2023-03-23T12:23:19.933Z,421.88
2023-03-23T12:24:19.927Z,354.38
2023-03-23T12:25:19.950Z,388.13
2023-03-23T12:26:19.938Z,410.63
2023-03-23T12:27:19.923Z,483.75
2023-03-23T12:28:19.987Z,337.50
2023-03-23T12:29:19.905Z,410.63
2023-03-23T12:30:19.916Z,354.38
2023-03-23T12:31:20.635Z,483.75
2023-03-23T12:32:19.895Z,298.13
2023-03-23T12:33:19.899Z,298.13
2023-03-23T12:34:19.908Z,264.38
2023-03-23T12:35:23.993Z,264.38
2023-03-23T12:36:19.949Z,337.50
2023-03-23T12:37:19.918Z,275.63
2023-03-23T12:38:19.927Z,416.25
2023-03-23T12:39:19.917Z,320.63
2023-03-23T12:40:19.917Z,315.00
2023-03-23T12:41:19.946Z,331.88
2023-03-23T12:42:19.893Z,298.13
2023-03-23T12:43:19.895Z,365.63
2023-03-23T12:44:19.904Z,506.25
2023-03-23T12:48:17.462Z,337.50
2023-03-23T12:49:17.453Z,286.88
2023-03-23T12:50:17.480Z,286.88
2023-03-23T12:51:17.470Z,247.50
2023-03-23T12:52:17.475Z,286.88
2023-03-23T12:53:17.515Z,281.25
2023-03-23T12:54:17.478Z,371.25
2023-03-23T12:55:17.478Z,472.50
2023-03-23T12:56:17.452Z,495.00
2023-03-23T12:57:17.454Z,281.25
2023-03-23T12:58:17.485Z,376.88
2023-03-23T12:59:17.471Z,326.25
2023-03-23T13:00:17.491Z,315.00
2023-03-23T13:01:17.457Z,320.63
2023-03-23T13:02:17.458Z,511.88
2023-03-23T13:03:17.494Z,399.38
2023-03-23T13:04:17.504Z,472.50
2023-03-23T13:05:17.474Z,590.63
2023-03-23T13:06:17.541Z,573.75
2023-03-23T13:07:17.491Z,450.00
2023-03-23T13:08:17.508Z,697.50
2023-03-23T13:09:17.492Z,652.50
2023-03-23T13:10:17.496Z,1580.63
2023-03-23T13:11:17.466Z,1198.13
2023-03-23T13:12:17.465Z,675.00
2023-03-23T13:13:21.396Z,652.50
2023-03-23T13:14:17.474Z,770.63
2023-03-23T13:15:17.494Z,635.63
2023-03-23T13:16:17.480Z,939.38
2023-03-23T13:17:17.548Z,607.50
2023-03-23T13:18:17.462Z,596.25
2023-03-23T13:19:17.479Z,804.38
2023-03-23T13:20:17.582Z,753.75
2023-03-23T13:21:17.511Z,720.00
2023-03-23T13:22:17.474Z,781.88
2023-03-23T13:23:17.493Z,894.38
2023-03-23T13:24:17.485Z,1063.13
2023-03-23T13:25:17.501Z,871.88
2023-03-23T13:26:17.514Z,1350.00
2023-03-23T13:27:17.482Z,1344.38
2023-03-23T13:28:17.489Z,1170.00
2023-03-23T13:29:17.522Z,1231.88
2023-03-23T13:30:17.484Z,2576.25
2023-03-23T13:31:17.510Z,1389.38
2023-03-23T13:32:17.541Z,1473.75
2023-03-23T13:33:17.536Z,1231.88
2023-03-23T13:34:17.535Z,2306.25
2023-03-23T13:35:17.506Z,1530.00
2023-03-23T13:36:19.096Z,2250.00
2023-03-23T13:37:17.518Z,1490.63
2023-03-23T13:38:17.493Z,1766.25
2023-03-23T13:39:17.542Z,1631.25
2023-03-23T13:40:17.539Z,1203.75
2023-03-23T13:41:17.530Z,1198.13
2023-03-23T13:42:17.652Z,1850.63
2023-03-23T13:43:17.510Z,1715.63
2023-03-23T13:44:17.520Z,2621.25
2023-03-23T13:45:17.531Z,2598.75
2023-03-23T13:46:17.557Z,2480.63
2023-03-23T13:47:17.528Z,1063.13
2023-03-23T13:48:17.613Z,511.88
2023-03-23T13:49:17.533Z,894.38
2023-03-23T13:50:17.550Z,438.75
2023-03-23T13:51:17.565Z,950.63
2023-03-23T13:52:17.564Z,2199.38
2023-03-23T13:53:17.591Z,427.50
2023-03-23T13:54:17.871Z,810.00
2023-03-23T13:55:17.559Z,2255.63
2023-03-23T13:56:17.628Z,680.63
2023-03-23T13:57:17.573Z,928.13
2023-03-23T13:58:17.582Z,1766.25
2023-03-23T13:59:17.633Z,421.88
2023-03-23T14:00:17.600Z,326.25
2023-03-23T14:01:17.612Z,483.75
2023-03-23T14:02:17.576Z,506.25
2023-03-23T14:03:17.627Z,450.00
2023-03-23T14:04:17.595Z,556.88
2023-03-23T14:05:17.604Z,2002.50
2023-03-23T14:06:17.602Z,495.00
2023-03-23T14:07:17.657Z,922.50
2023-03-23T14:08:17.592Z,2081.25
2023-03-23T14:09:17.589Z,2548.13
2023-03-23T14:10:17.597Z,2508.75
2023-03-23T14:11:17.592Z,2424.38
2023-03-23T14:12:17.651Z,2413.13
2023-03-23T14:13:17.615Z,2418.75
2023-03-23T14:14:17.626Z,2362.50
2023-03-23T14:15:17.635Z,2306.25
2023-03-23T14:16:17.623Z,2278.13
2023-03-23T14:17:17.691Z,2238.75
2023-03-23T14:18:17.646Z,2216.25
2023-03-23T14:19:17.646Z,2233.13
2023-03-23T14:20:17.689Z,2261.25
2023-03-23T14:21:18.337Z,2193.75
2023-03-23T14:22:17.660Z,2244.38
2023-03-23T14:23:17.646Z,2266.88
2023-03-23T14:24:17.671Z,2250.00
2023-03-23T14:25:17.660Z,2250.00
2023-03-23T14:26:17.700Z,2323.13
2023-03-23T14:27:17.659Z,2221.88
2023-03-23T14:28:17.821Z,2379.38
2023-03-23T14:29:17.700Z,2323.13
2023-03-23T14:30:17.755Z,1096.88
2023-03-23T14:31:17.720Z,2250.00
2023-03-23T14:32:17.740Z,2148.75
2023-03-23T14:33:17.715Z,669.38
2023-03-23T14:34:17.734Z,2244.38
2023-03-23T14:35:17.943Z,2261.25
2023-03-23T14:36:17.702Z,2176.88
2023-03-23T14:37:17.698Z,1029.38
2023-03-23T14:38:17.752Z,2210.63
2023-03-23T14:39:17.721Z,2047.50
2023-03-23T14:40:17.726Z,1659.38
2023-03-23T14:41:17.727Z,174.38
2023-03-23T14:42:17.746Z,275.63
2023-03-23T14:43:17.732Z,247.50
2023-03-23T14:44:17.740Z,163.13
2023-03-23T14:45:17.796Z,151.88
2023-03-23T14:46:17.753Z,208.13
2023-03-23T14:47:17.756Z,292.50
2023-03-23T14:48:17.774Z,393.75
2023-03-23T14:49:17.781Z,1665.00
2023-03-23T14:50:17.773Z,1940.63
2023-03-23T14:51:17.783Z,1867.50
2023-03-23T14:52:17.785Z,1563.75
2023-03-23T14:53:17.779Z,1794.38
2023-03-23T14:54:17.779Z,1771.88
2023-03-23T14:55:17.786Z,1839.38
2023-03-23T14:56:17.805Z,1771.88
2023-03-23T14:57:17.806Z,1687.50
2023-03-23T14:58:17.795Z,1563.75
2023-03-23T14:59:17.800Z,1614.38
2023-03-23T15:00:17.832Z,1636.88
2023-03-23T15:01:17.884Z,1614.38
2023-03-23T15:02:17.823Z,1524.38
2023-03-23T15:03:17.982Z,1518.75
2023-03-23T15:04:17.818Z,1490.63
2023-03-23T15:05:17.858Z,1490.63
2023-03-23T15:06:17.855Z,1490.63
2023-03-23T15:07:17.824Z,1473.75
2023-03-23T15:08:17.850Z,1423.13
2023-03-23T15:09:17.856Z,1400.63
2023-03-23T15:10:17.827Z,1440.00
2023-03-23T15:11:17.876Z,230.63
2023-03-23T15:12:17.852Z,1237.50
2023-03-23T15:13:17.946Z,129.38
2023-03-23T15:14:17.854Z,129.38
2023-03-23T15:15:17.867Z,118.13
2023-03-23T15:16:17.934Z,123.75
2023-03-23T15:17:17.962Z,101.25
2023-03-23T15:18:17.864Z,73.13
2023-03-23T15:19:17.869Z,67.50
2023-03-23T15:20:17.877Z,67.50
2023-03-23T15:21:17.877Z,78.75
2023-03-23T15:22:17.898Z,146.25
2023-03-23T15:23:17.968Z,843.75
2023-03-23T15:24:17.887Z,219.38
2023-03-23T15:25:17.904Z,253.13
2023-03-23T15:26:17.921Z,213.75
2023-03-23T15:27:18.990Z,168.75
2023-03-23T15:28:17.949Z,146.25
2023-03-23T15:29:17.895Z,129.38
2023-03-23T15:30:17.909Z,101.25
2023-03-23T15:31:17.906Z,84.38
2023-03-23T15:32:18.010Z,84.38
2023-03-23T15:33:17.953Z,84.38
2023-03-23T15:34:17.918Z,78.75
2023-03-23T15:35:17.963Z,78.75
2023-03-23T15:36:17.942Z,84.38
2023-03-23T15:37:20.628Z,90.00
2023-03-23T15:38:18.002Z,84.38
2023-03-23T15:39:17.943Z,78.75
2023-03-23T15:40:17.956Z,67.50
2023-03-23T15:41:17.952Z,56.25
2023-03-23T15:42:17.967Z,56.25
2023-03-23T15:43:18.079Z,56.25
2023-03-23T15:44:17.931Z,50.63
2023-03-23T15:45:17.945Z,50.63
2023-03-23T15:46:17.925Z,45.00
2023-03-23T15:47:17.924Z,45.00
2023-03-23T15:48:17.939Z,39.38
2023-03-23T15:49:18.110Z,39.38
2023-03-23T15:51:51.278Z,45.00
2023-03-23T15:52:51.264Z,45.00
2023-03-23T15:53:51.278Z,39.38
2023-03-23T15:54:51.261Z,33.75
2023-03-23T15:55:51.258Z,22.50
2023-03-23T15:56:51.240Z,16.88
2023-03-23T15:57:51.287Z,11.25
2023-03-23T15:58:51.368Z,5.63
2023-03-23T15:59:51.255Z,5.63
2023-03-23T16:00:51.318Z,5.63
2023-03-23T16:12:32.253Z,5.63
2023-03-23T16:13:32.184Z,5.63
2023-03-23T16:14:32.156Z,11.25
2023-03-23T16:15:32.141Z,11.25
2023-03-23T16:16:32.214Z,22.50
2023-03-23T16:17:32.193Z,33.75
2023-03-23T16:18:32.188Z,45.00
2023-03-23T16:19:32.162Z,45.00
2023-03-23T16:20:32.173Z,39.38
2023-03-23T16:21:32.150Z,28.13
2023-03-23T16:22:32.123Z,22.50
2023-03-23T16:23:32.423Z,22.50
2023-03-23T16:24:32.146Z,22.50
2023-03-23T16:25:32.207Z,22.50
2023-03-23T16:26:32.195Z,22.50
2023-03-23T16:27:32.114Z,28.13
2023-03-23T16:28:32.153Z,28.13
2023-03-23T16:29:54.341Z,28.13
2023-03-23T16:30:32.205Z,28.13
2023-03-23T16:31:32.109Z,33.75
2023-03-23T16:33:32.227Z,33.75
2023-03-23T16:34:32.103Z,39.38
2023-03-23T16:35:32.114Z,33.75
2023-03-23T16:36:32.079Z,33.75
2023-03-23T16:37:32.107Z,22.50
2023-03-23T16:38:32.123Z,22.50
2023-03-23T16:39:32.085Z,16.88
2023-03-23T16:40:32.070Z,16.88
2023-03-23T16:41:32.101Z,16.88
2023-03-23T16:42:32.087Z,11.25
2023-03-23T16:43:32.074Z,11.25
2023-03-23T16:44:32.174Z,11.25
2023-03-23T16:45:32.058Z,11.25
2023-03-23T16:46:32.078Z,11.25
2023-03-23T16:47:32.195Z,11.25
2023-03-23T16:48:32.039Z,11.25
2023-03-23T16:49:32.146Z,16.88
2023-03-23T16:50:32.109Z,16.88
2023-03-23T16:51:32.132Z,16.88
2023-03-23T16:52:32.081Z,11.25
2023-03-23T16:53:32.128Z,11.25
2023-03-23T16:54:32.032Z,11.25
2023-03-23T16:55:32.040Z,11.25
2023-03-23T16:56:32.063Z,11.25
2023-03-23T16:57:32.049Z,16.88
2023-03-23T16:58:32.094Z,16.88
2023-03-23T16:59:32.014Z,22.50
2023-03-23T17:00:32.038Z,16.88
2023-03-23T17:01:32.089Z,11.25
2023-03-23T17:02:32.178Z,11.25
2023-03-23T17:03:32.159Z,11.25
2023-03-23T17:04:32.024Z,11.25
2023-03-23T17:05:32.012Z,11.25
2023-03-23T17:06:32.010Z,11.25
2023-03-23T17:07:32.005Z,11.25
2023-03-23T17:08:32.005Z,11.25
2023-03-23T17:09:32.002Z,11.25
2023-03-23T17:10:32.038Z,11.25
2023-03-23T17:11:31.977Z,11.25
2023-03-23T17:12:32.052Z,11.25
2023-03-23T17:13:31.982Z,11.25
2023-03-23T17:14:31.982Z,5.63
2023-03-23T17:15:32.015Z,5.63
2023-03-23T17:16:31.998Z,5.63
2023-03-23T17:17:32.061Z,5.63
2023-03-23T17:18:31.971Z,0.00
2023-03-23T17:19:31.964Z,0.00
2023-03-23T17:20:31.974Z,0.00
2023-03-23T17:21:32.927Z,0.00
2023-03-23T17:22:31.960Z,0.00
2023-03-23T17:23:31.944Z,0.00
2023-03-23T17:24:31.934Z,0.00
2023-03-23T17:25:32.050Z,5.63
2023-03-23T17:26:31.951Z,5.63
2023-03-23T17:27:31.942Z,5.63
2023-03-23T17:28:32.110Z,5.63
2023-03-23T17:29:31.950Z,5.63
2023-03-23T17:30:31.933Z,5.63
2023-03-23T17:31:31.980Z,0.00
2023-03-23T17:32:31.978Z,0.00
2023-03-23T17:33:31.908Z,0.00
2023-03-23T17:34:32.010Z,0.00
2023-03-23T17:35:31.982Z,0.00